createdAt,value
2023-02-14T00:00:43.138Z,-1.08
2023-02-14T00:03:09.607Z,-1.11
2023-02-14T00:05:36.139Z,-1.14
2023-02-14T00:08:02.558Z,-1.09
2023-02-14T00:10:29.050Z,-1.16
2023-02-14T00:12:55.492Z,-1.19
2023-02-14T00:15:25.887Z,-1.12
2023-02-14T00:17:55.442Z,-1.19
2023-02-14T00:20:23.167Z,-0.99
2023-02-14T00:22:50.359Z,-0.94
2023-02-14T00:25:18.137Z,-0.91
2023-02-14T00:27:45.033Z,-0.85
2023-02-14T00:30:13.638Z,-0.98
2023-02-14T00:32:41.573Z,-1.10
2023-02-14T00:35:09.346Z,-1.04
2023-02-14T00:37:36.049Z,-1.05
2023-02-14T00:40:02.827Z,-1.28
2023-02-14T00:42:29.272Z,-1.01
2023-02-14T00:44:55.761Z,-1.09
2023-02-14T00:47:22.283Z,-1.18
2023-02-14T00:49:48.789Z,-1.20
2023-02-14T00:52:15.430Z,-1.12
2023-02-14T00:54:42.112Z,-1.15
2023-02-14T00:57:08.596Z,-1.19
2023-02-14T00:59:36.304Z,-1.36
2023-02-14T01:02:04.015Z,-1.24
2023-02-14T01:04:30.506Z,-1.11
2023-02-14T01:06:57.014Z,-1.11
2023-02-14T01:09:23.426Z,-1.07
2023-02-14T01:11:50.118Z,-1.15
2023-02-14T01:14:16.534Z,-1.35
2023-02-14T01:16:42.989Z,-1.32
2023-02-14T01:19:09.496Z,-1.23
2023-02-14T01:21:36.036Z,-1.16
2023-02-14T01:24:06.158Z,-1.24
2023-02-14T01:26:34.188Z,-1.27
2023-02-14T01:29:01.715Z,-1.29
2023-02-14T01:31:31.553Z,-1.31
2023-02-14T01:33:59.422Z,-1.27
2023-02-14T01:36:36.491Z,-1.14
2023-02-14T01:39:11.508Z,-1.16
2023-02-14T01:41:39.745Z,-1.25
2023-02-14T01:44:26.401Z,-1.26
2023-02-14T01:46:52.975Z,-1.29
2023-02-14T01:49:47.473Z,-1.34
2023-02-14T01:52:37.648Z,-1.30
2023-02-14T01:55:13.008Z,-1.42
2023-02-14T01:57:54.046Z,-1.66
2023-02-14T02:00:40.577Z,-1.65
2023-02-14T02:03:08.192Z,-1.74
2023-02-14T02:05:40.084Z,-1.99
2023-02-14T02:08:06.716Z,-2.12
2023-02-14T02:10:33.146Z,-2.21
2023-02-14T02:13:05.950Z,-2.09
2023-02-14T02:15:42.370Z,-1.97
2023-02-14T02:18:29.949Z,-1.89
2023-02-14T02:21:15.199Z,-1.77
2023-02-14T02:23:59.030Z,-1.64
2023-02-14T02:26:57.110Z,-1.58
2023-02-14T02:29:56.626Z,-1.53
2023-02-14T02:33:01.756Z,-1.69
2023-02-14T02:35:50.044Z,-1.52
2023-02-14T02:38:55.333Z,-1.46
2023-02-14T02:41:53.052Z,-1.63
2023-02-14T02:44:35.862Z,-1.63
2023-02-14T02:47:31.152Z,-1.60
2023-02-14T02:50:32.858Z,-1.55
2023-02-14T02:53:05.440Z,-1.48
2023-02-14T02:55:53.026Z,-1.52
2023-02-14T02:58:22.479Z,-1.52
2023-02-14T03:00:53.057Z,-1.51
2023-02-14T03:03:43.312Z,-1.52
2023-02-14T03:06:09.875Z,-1.52
2023-02-14T03:08:36.290Z,-1.51
2023-02-14T03:11:04.872Z,-1.50
2023-02-14T03:14:03.140Z,-1.52
2023-02-14T03:16:41.655Z,-1.51
2023-02-14T03:19:55.323Z,-1.46
2023-02-14T03:22:35.084Z,-1.57
2023-02-14T03:25:16.534Z,-1.83
2023-02-14T03:28:18.860Z,-1.78
2023-02-14T03:31:02.546Z,-1.85
2023-02-14T03:33:41.140Z,-1.81
2023-02-14T03:36:31.604Z,-1.98
2023-02-14T03:39:15.982Z,-2.02
2023-02-14T03:42:06.292Z,-2.08
2023-02-14T03:44:35.312Z,-2.05
2023-02-14T03:47:07.448Z,-1.93
2023-02-14T03:49:39.792Z,-1.81
2023-02-14T03:52:09.676Z,-1.76
2023-02-14T03:54:36.610Z,-1.81
2023-02-14T03:57:22.182Z,-1.71
2023-02-14T03:59:48.996Z,-1.71
2023-02-14T04:02:23.349Z,-1.67
2023-02-14T04:04:51.610Z,-1.87
2023-02-14T04:07:21.020Z,-1.98
2023-02-14T04:09:48.290Z,-1.96
2023-02-14T04:12:16.950Z,-2.02
2023-02-14T04:14:44.794Z,-2.28
2023-02-14T04:17:30.133Z,-2.42
2023-02-14T04:19:56.656Z,-2.41
2023-02-14T04:22:23.191Z,-2.37
2023-02-14T04:24:49.679Z,-2.23
2023-02-14T04:27:16.162Z,-2.22
2023-02-14T04:29:44.219Z,-2.09
2023-02-14T04:32:17.477Z,-2.02
2023-02-14T04:34:44.552Z,-2.10
2023-02-14T04:37:11.762Z,-2.02
2023-02-14T04:39:39.347Z,-2.01
2023-02-14T04:42:06.512Z,-1.92
2023-02-14T04:44:34.089Z,-2.02
2023-02-14T04:47:01.591Z,-1.92
2023-02-14T04:49:28.025Z,-2.04
2023-02-14T04:51:54.628Z,-2.11
2023-02-14T04:54:22.009Z,-2.26
2023-02-14T04:56:48.994Z,-2.28
2023-02-14T04:59:15.578Z,-2.25
2023-02-14T05:01:42.336Z,-2.22
2023-02-14T05:04:08.926Z,-2.15
2023-02-14T05:06:35.444Z,-2.20
2023-02-14T05:09:02.363Z,-2.10
2023-02-14T05:11:29.428Z,-2.14
2023-02-14T05:13:56.202Z,-2.18
2023-02-14T05:16:23.105Z,-2.18
2023-02-14T05:18:49.712Z,-2.31
2023-02-14T05:21:16.264Z,-2.32
2023-02-14T05:23:42.680Z,-2.46
2023-02-14T05:26:09.217Z,-2.49
2023-02-14T05:28:36.136Z,-2.45
2023-02-14T05:31:03.152Z,-2.44
2023-02-14T05:33:29.928Z,-2.39
2023-02-14T05:35:59.891Z,-2.32
2023-02-14T05:38:26.485Z,-2.29
2023-02-14T05:40:52.954Z,-2.28
2023-02-14T05:43:19.456Z,-2.29
2023-02-14T05:45:45.966Z,-2.24
2023-02-14T05:48:13.264Z,-2.23
2023-02-14T05:50:39.701Z,-2.17
2023-02-14T05:53:06.834Z,-2.13
2023-02-14T05:55:33.350Z,-2.13
2023-02-14T05:57:59.779Z,-1.02
2023-02-14T06:00:26.455Z,0.46
2023-02-14T06:02:52.982Z,1.01
2023-02-14T06:05:20.156Z,1.73
2023-02-14T06:07:50.531Z,2.01
2023-02-14T06:10:22.086Z,2.25
2023-02-14T06:12:49.747Z,1.42
2023-02-14T06:15:16.414Z,0.68
2023-02-14T06:17:43.449Z,0.10
2023-02-14T06:20:11.435Z,-0.34
2023-02-14T06:22:39.100Z,-0.64
2023-02-14T06:25:06.537Z,-0.88
2023-02-14T06:27:33.360Z,-1.24
2023-02-14T06:29:59.972Z,-1.50
2023-02-14T06:32:26.670Z,-1.49
2023-02-14T06:34:53.116Z,-1.67
2023-02-14T06:37:20.097Z,-1.90
2023-02-14T06:39:46.673Z,-1.89
2023-02-14T06:42:13.153Z,-2.04
2023-02-14T06:44:39.637Z,-2.18
2023-02-14T06:47:07.961Z,-2.24
2023-02-14T06:49:34.656Z,-2.32
2023-02-14T06:52:01.130Z,-2.30
2023-02-14T06:54:28.654Z,-2.15
2023-02-14T06:56:55.132Z,-2.19
2023-02-14T06:59:21.727Z,-2.31
2023-02-14T07:01:48.336Z,-2.32
2023-02-14T07:04:15.003Z,-2.43
2023-02-14T07:06:41.589Z,-2.38
2023-02-14T07:09:08.491Z,-2.30
2023-02-14T07:11:34.965Z,-2.33
2023-02-14T07:14:01.446Z,-2.37
2023-02-14T07:16:27.963Z,-2.30
2023-02-14T07:18:54.369Z,-2.27
2023-02-14T07:21:20.854Z,-2.20
2023-02-14T07:23:49.898Z,-2.13
2023-02-14T07:26:18.098Z,-2.04
2023-02-14T07:28:45.859Z,-1.94
2023-02-14T07:31:12.700Z,-1.85
2023-02-14T07:33:39.560Z,-1.76
2023-02-14T07:36:07.884Z,-1.61
2023-02-14T07:38:35.607Z,-1.65
2023-02-14T07:41:02.549Z,-1.37
2023-02-14T07:43:29.221Z,-1.30
2023-02-14T07:45:55.778Z,-1.21
2023-02-14T07:48:22.408Z,-1.10
2023-02-14T07:50:48.908Z,-0.94
2023-02-14T07:53:15.359Z,-0.83
2023-02-14T07:55:41.807Z,-0.74
2023-02-14T07:58:09.472Z,-0.77
2023-02-14T08:00:35.924Z,-0.71
2023-02-14T08:03:02.384Z,-0.65
2023-02-14T08:05:29.672Z,-0.57
2023-02-14T08:07:56.116Z,-0.51
2023-02-14T08:10:22.872Z,-0.47
2023-02-14T08:13:01.741Z,-0.42
2023-02-14T08:15:51.486Z,-0.37
2023-02-14T08:18:19.958Z,-0.30
2023-02-14T08:20:49.633Z,-0.28
2023-02-14T08:23:18.564Z,-0.33
2023-02-14T08:25:45.423Z,-0.41
2023-02-14T08:28:13.675Z,-0.42
2023-02-14T08:30:40.980Z,-0.33
2023-02-14T08:33:08.588Z,-0.37
2023-02-14T08:35:36.027Z,-0.28
2023-02-14T08:38:02.480Z,-0.13
2023-02-14T08:40:29.030Z,-0.14
2023-02-14T08:42:55.530Z,-0.29
2023-02-14T08:45:22.095Z,-0.17
2023-02-14T08:47:48.784Z,-0.25
2023-02-14T08:50:17.456Z,-0.03
2023-02-14T08:52:44.472Z,0.10
2023-02-14T08:55:11.664Z,0.18
2023-02-14T08:57:38.401Z,0.18
2023-02-14T09:00:07.665Z,0.53
2023-02-14T09:02:34.441Z,0.62
2023-02-14T09:05:01.104Z,0.57
2023-02-14T09:07:27.669Z,0.80
2023-02-14T09:09:54.144Z,1.29
2023-02-14T09:12:20.591Z,1.72
2023-02-14T09:14:47.674Z,2.09
2023-02-14T09:17:15.278Z,2.49
2023-02-14T09:19:42.332Z,2.89
2023-02-14T09:22:10.391Z,3.22
2023-02-14T09:24:38.646Z,3.40
2023-02-14T09:27:05.746Z,3.68
2023-02-14T09:29:34.255Z,3.88
2023-02-14T09:32:01.951Z,4.18
2023-02-14T09:34:48.611Z,4.34
2023-02-14T09:37:33.984Z,4.43
2023-02-14T09:40:00.836Z,4.57
2023-02-14T09:42:27.250Z,4.52
2023-02-14T09:45:07.109Z,4.66
2023-02-14T09:47:40.447Z,4.67
2023-02-14T09:50:19.130Z,4.66
2023-02-14T09:52:49.751Z,4.91
2023-02-14T09:55:18.005Z,4.88
2023-02-14T09:58:13.308Z,4.90
2023-02-14T10:00:48.721Z,5.00
2023-02-14T10:03:48.026Z,5.04
2023-02-14T10:06:38.849Z,5.18
2023-02-14T10:09:28.646Z,4.96
2023-02-14T10:11:57.954Z,5.18
2023-02-14T10:14:29.957Z,4.96
2023-02-14T10:17:15.082Z,5.14
2023-02-14T10:19:48.347Z,5.46
2023-02-14T10:22:18.259Z,5.42
2023-02-14T10:24:47.643Z,5.18
2023-02-14T10:27:42.521Z,5.06
2023-02-14T10:30:18.172Z,4.89
2023-02-14T10:33:11.099Z,4.99
2023-02-14T10:35:51.190Z,4.29
2023-02-14T10:38:46.461Z,4.18
2023-02-14T10:41:35.749Z,3.93
2023-02-14T10:44:20.540Z,3.97
2023-02-14T10:47:04.488Z,3.62
2023-02-14T10:49:53.428Z,4.08
2023-02-14T10:52:29.431Z,4.25
2023-02-14T10:55:00.031Z,4.50
2023-02-14T10:57:36.614Z,4.41
2023-02-14T11:00:07.188Z,4.83
2023-02-14T11:02:40.074Z,4.89
2023-02-14T11:05:17.751Z,4.60
2023-02-14T11:07:44.658Z,4.42
2023-02-14T11:10:14.691Z,4.11
2023-02-14T11:12:41.833Z,4.13
2023-02-14T11:15:17.281Z,4.23
2023-02-14T11:17:43.838Z,4.58
2023-02-14T11:20:30.312Z,4.89
2023-02-14T11:22:57.546Z,4.84
2023-02-14T11:25:29.745Z,4.93
2023-02-14T11:28:05.940Z,5.11
2023-02-14T11:30:40.864Z,5.34
2023-02-14T11:33:13.278Z,5.36
2023-02-14T11:35:40.035Z,5.29
2023-02-14T11:38:24.898Z,5.51
2023-02-14T11:40:55.938Z,5.65
2023-02-14T11:43:38.118Z,5.72
2023-02-14T11:46:14.901Z,5.69
2023-02-14T11:48:59.633Z,5.57
2023-02-14T11:51:29.826Z,5.35
2023-02-14T11:54:01.601Z,5.12
2023-02-14T11:56:54.369Z,4.88
2023-02-14T11:59:44.095Z,4.72
2023-02-14T12:02:32.706Z,4.57
2023-02-14T12:05:04.874Z,4.57
2023-02-14T12:07:37.735Z,4.37
2023-02-14T12:10:15.585Z,4.07
2023-02-14T12:12:50.153Z,3.92
2023-02-14T12:15:25.690Z,3.86
2023-02-14T12:18:00.579Z,3.80
2023-02-14T12:20:38.021Z,3.82
2023-02-14T12:23:17.560Z,3.62
2023-02-14T12:25:52.738Z,3.55
2023-02-14T12:28:25.935Z,3.56
2023-02-14T12:30:52.491Z,3.58
2023-02-14T12:33:21.745Z,3.54
2023-02-14T12:36:24.308Z,3.64
2023-02-14T12:39:08.493Z,3.55
2023-02-14T12:42:00.567Z,3.66
2023-02-14T12:44:57.662Z,3.62
2023-02-14T12:47:39.091Z,3.52
2023-02-14T12:50:21.529Z,3.56
2023-02-14T12:53:06.106Z,3.42
2023-02-14T12:55:42.110Z,3.31
2023-02-14T12:58:44.114Z,3.27
2023-02-14T13:01:24.763Z,3.29
2023-02-14T13:04:47.447Z,3.20
2023-02-14T13:07:29.834Z,3.30
2023-02-14T13:10:25.071Z,3.33
2023-02-14T13:13:14.338Z,3.26
2023-02-14T13:15:45.012Z,3.10
2023-02-14T13:18:36.566Z,3.12
2023-02-14T13:21:06.351Z,3.24
2023-02-14T13:23:41.154Z,3.31
2023-02-14T13:26:14.705Z,3.38
2023-02-14T13:29:10.765Z,3.60
2023-02-14T13:31:38.688Z,3.66
2023-02-14T13:34:13.714Z,3.58
2023-02-14T13:36:40.989Z,3.58
2023-02-14T13:39:13.918Z,3.63
2023-02-14T13:41:41.788Z,3.64
2023-02-14T13:44:08.385Z,3.53
2023-02-14T13:46:35.228Z,3.36
2023-02-14T13:49:23.471Z,3.19
2023-02-14T13:51:57.178Z,3.16
2023-02-14T13:54:47.530Z,2.97
2023-02-14T13:57:36.434Z,3.18
2023-02-14T14:00:19.335Z,3.26
2023-02-14T14:02:56.598Z,2.99
2023-02-14T14:05:50.007Z,2.88
2023-02-14T14:08:29.866Z,2.68
2023-02-14T14:10:59.802Z,2.66
2023-02-14T14:13:41.873Z,2.69
2023-02-14T14:16:23.599Z,2.85
2023-02-14T14:19:16.362Z,2.78
2023-02-14T14:21:45.524Z,2.87
2023-02-14T14:24:22.955Z,3.08
2023-02-14T14:27:06.485Z,2.80
2023-02-14T14:29:59.626Z,2.88
2023-02-14T14:32:29.983Z,2.86
2023-02-14T14:35:21.660Z,2.51
2023-02-14T14:38:01.048Z,2.48
2023-02-14T14:40:34.913Z,2.49
2023-02-14T14:43:10.266Z,2.55
2023-02-14T14:45:40.955Z,2.22
2023-02-14T14:48:14.021Z,2.37
2023-02-14T14:50:45.700Z,2.04
2023-02-14T14:53:23.523Z,2.32
2023-02-14T14:55:54.446Z,1.94
2023-02-14T14:58:39.589Z,2.02
2023-02-14T15:01:21.381Z,1.73
2023-02-14T15:03:48.915Z,1.21
2023-02-14T15:06:22.737Z,1.66
2023-02-14T15:08:49.962Z,1.59
2023-02-14T15:11:41.916Z,1.71
2023-02-14T15:14:15.767Z,1.72
2023-02-14T15:17:14.033Z,1.73
2023-02-14T15:19:44.747Z,1.42
2023-02-14T15:22:25.924Z,1.54
2023-02-14T15:24:57.908Z,1.68
2023-02-14T15:27:26.614Z,1.44
2023-02-14T15:30:10.046Z,1.47
2023-02-14T15:32:40.291Z,1.22
2023-02-14T15:35:14.688Z,1.28
2023-02-14T15:37:45.335Z,0.81
2023-02-14T15:40:23.106Z,0.94
2023-02-14T15:42:57.417Z,0.97
2023-02-14T15:45:28.793Z,1.14
2023-02-14T15:47:59.208Z,1.07
2023-02-14T15:50:33.067Z,1.00
2023-02-14T15:53:17.273Z,0.92
2023-02-14T15:55:44.599Z,1.00
2023-02-14T15:58:23.157Z,1.00
2023-02-14T16:00:53.382Z,0.98
2023-02-14T16:03:26.871Z,1.06
2023-02-14T16:05:55.044Z,0.89
2023-02-14T16:08:31.641Z,1.48
2023-02-14T16:11:30.065Z,1.50
2023-02-14T16:13:56.928Z,1.45
2023-02-14T16:16:23.896Z,1.47
2023-02-14T16:18:56.601Z,1.52
2023-02-14T16:21:27.575Z,1.31
2023-02-14T16:24:11.286Z,1.00
2023-02-14T16:26:39.544Z,1.00
2023-02-14T16:29:08.358Z,0.91
2023-02-14T16:31:38.516Z,0.75
2023-02-14T16:34:05.568Z,0.40
2023-02-14T16:36:34.495Z,0.18
2023-02-14T16:39:05.960Z,0.58
2023-02-14T16:41:34.607Z,0.51
2023-02-14T16:44:01.520Z,0.30
2023-02-14T16:46:31.555Z,0.59
2023-02-14T16:48:59.562Z,0.64
2023-02-14T16:51:29.890Z,0.81
2023-02-14T16:54:00.592Z,0.46
2023-02-14T16:56:36.791Z,0.83
2023-02-14T16:59:03.686Z,0.42
2023-02-14T17:01:30.357Z,0.39
2023-02-14T17:03:58.694Z,0.13
2023-02-14T17:06:28.637Z,0.41
2023-02-14T17:08:58.526Z,0.76
2023-02-14T17:11:27.478Z,0.26
2023-02-14T17:13:55.078Z,0.61
2023-02-14T17:16:22.630Z,0.23
2023-02-14T17:18:52.153Z,0.38
2023-02-14T17:21:23.516Z,0.57
2023-02-14T17:23:50.781Z,0.50
2023-02-14T17:26:19.036Z,0.53
2023-02-14T17:28:47.575Z,0.34
2023-02-14T17:31:17.038Z,0.45
2023-02-14T17:33:54.521Z,0.52
2023-02-14T17:36:32.188Z,0.48
2023-02-14T17:39:09.309Z,-0.79
2023-02-14T17:41:36.571Z,0.32
2023-02-14T17:44:05.181Z,0.23
2023-02-14T17:46:32.680Z,0.46
2023-02-14T17:49:03.220Z,0.33
2023-02-14T17:51:30.888Z,0.26
2023-02-14T17:53:59.034Z,0.18
2023-02-14T17:56:26.213Z,0.10
2023-02-14T17:58:55.285Z,0.12
2023-02-14T18:01:24.629Z,0.34
2023-02-14T18:03:53.028Z,0.33
2023-02-14T18:06:19.820Z,0.17
2023-02-14T18:08:53.588Z,0.16
2023-02-14T18:11:21.643Z,-0.23
2023-02-14T18:13:48.645Z,-0.09
2023-02-14T18:16:18.460Z,-0.01
2023-02-14T18:18:45.898Z,-0.58
2023-02-14T18:21:25.725Z,-0.15
2023-02-14T18:24:06.668Z,-0.60
2023-02-14T18:26:34.732Z,-0.94
2023-02-14T18:29:06.802Z,-0.37
2023-02-14T18:31:35.622Z,-0.05
2023-02-14T18:34:05.640Z,-0.20
2023-02-14T18:36:36.179Z,-0.45
2023-02-14T18:39:04.213Z,-0.08
2023-02-14T18:41:31.961Z,-0.13
2023-02-14T18:43:59.110Z,-0.63
2023-02-14T18:46:30.684Z,-0.10
2023-02-14T18:48:57.914Z,-0.16
2023-02-14T18:51:27.603Z,-0.10
2023-02-14T18:53:59.981Z,-0.13
2023-02-14T18:56:30.651Z,-0.27
2023-02-14T18:59:04.859Z,-0.08
2023-02-14T19:01:36.938Z,-0.13
2023-02-14T19:04:09.326Z,-0.22
2023-02-14T19:06:40.968Z,-0.12
2023-02-14T19:09:13.557Z,-0.65
2023-02-14T19:11:42.104Z,-0.10
2023-02-14T19:14:13.804Z,-0.56
2023-02-14T19:16:51.266Z,-0.26
2023-02-14T19:19:24.116Z,-0.65
2023-02-14T19:21:52.051Z,-0.44
2023-02-14T19:24:19.929Z,-0.53
2023-02-14T19:26:48.358Z,-0.92
2023-02-14T19:29:18.299Z,-0.72
2023-02-14T19:31:48.400Z,-1.05
2023-02-14T19:34:29.319Z,-0.78
2023-02-14T19:36:59.130Z,-0.80
2023-02-14T19:39:29.648Z,-0.88
2023-02-14T19:41:58.223Z,-0.87
2023-02-14T19:44:26.804Z,-1.06
2023-02-14T19:46:59.828Z,-1.42
2023-02-14T19:49:33.217Z,-0.89
2023-02-14T19:52:00.159Z,-1.02
2023-02-14T19:54:29.969Z,-1.38
2023-02-14T19:56:57.445Z,-1.62
2023-02-14T19:59:28.643Z,-1.06
2023-02-14T20:01:56.573Z,-1.20
2023-02-14T20:04:27.832Z,-1.34
2023-02-14T20:06:56.101Z,-1.19
2023-02-14T20:09:23.738Z,-1.18
2023-02-14T20:11:54.404Z,-1.19
2023-02-14T20:14:25.092Z,-1.19
2023-02-14T20:16:54.012Z,-1.19
2023-02-14T20:19:23.442Z,-1.28
2023-02-14T20:21:51.230Z,-1.59
2023-02-14T20:24:20.547Z,-1.28
2023-02-14T20:26:48.190Z,-1.31
2023-02-14T20:29:16.280Z,-1.39
2023-02-14T20:31:45.563Z,-1.42
2023-02-14T20:34:13.200Z,-1.32
2023-02-14T20:36:41.233Z,-1.87
2023-02-14T20:39:09.721Z,-1.40
2023-02-14T20:41:36.429Z,-1.47
2023-02-14T20:44:10.687Z,-1.35
2023-02-14T20:46:37.659Z,-1.43
2023-02-14T20:49:05.747Z,-1.49
2023-02-14T20:51:34.971Z,-1.54
2023-02-14T20:54:04.004Z,-1.37
2023-02-14T20:56:31.129Z,-1.30
2023-02-14T20:59:00.681Z,-1.16
2023-02-14T21:01:27.950Z,-1.00
2023-02-14T21:03:55.499Z,-0.88
2023-02-14T21:06:28.157Z,-0.98
2023-02-14T21:08:55.440Z,-1.11
2023-02-14T21:11:24.315Z,-1.16
2023-02-14T21:13:57.583Z,-1.21
2023-02-14T21:16:25.850Z,-1.23
2023-02-14T21:18:59.329Z,-1.19
2023-02-14T21:21:26.213Z,-1.12
2023-02-14T21:23:53.855Z,-1.33
2023-02-14T21:26:21.401Z,-1.65
2023-02-14T21:28:49.318Z,-1.42
2023-02-14T21:31:21.241Z,-1.19
2023-02-14T21:33:57.487Z,-1.23
2023-02-14T21:36:26.561Z,-1.37
2023-02-14T21:38:58.884Z,-1.23
2023-02-14T21:41:29.794Z,-1.33
2023-02-14T21:43:57.935Z,-1.57
2023-02-14T21:46:31.518Z,-1.32
2023-02-14T21:49:22.683Z,-1.40
2023-02-14T21:51:49.241Z,-1.67
2023-02-14T21:54:16.793Z,-1.52
2023-02-14T21:56:43.938Z,-1.58
2023-02-14T21:59:11.101Z,-1.62
2023-02-14T22:01:39.579Z,-1.46
2023-02-14T22:04:09.484Z,-1.62
2023-02-14T22:06:38.371Z,-1.61
2023-02-14T22:09:05.910Z,-1.62
2023-02-14T22:11:35.379Z,-1.69
2023-02-14T22:14:02.220Z,-1.52
2023-02-14T22:16:29.164Z,-1.41
2023-02-14T22:18:56.046Z,-1.46
2023-02-14T22:21:25.785Z,-1.51
2023-02-14T22:23:53.211Z,-1.58
2023-02-14T22:26:29.054Z,-1.55
2023-02-14T22:29:00.785Z,-1.37
2023-02-14T22:31:33.162Z,-1.29
2023-02-14T22:34:00.023Z,-1.38
2023-02-14T22:36:26.912Z,-1.68
2023-02-14T22:38:53.817Z,-1.01
2023-02-14T22:41:23.924Z,-0.87
2023-02-14T22:43:52.448Z,-0.95
2023-02-14T22:46:23.478Z,-0.94
2023-02-14T22:48:51.526Z,-1.58
2023-02-14T22:51:21.654Z,-0.97
2023-02-14T22:53:50.848Z,-0.93
2023-02-14T22:56:26.268Z,-1.17
2023-02-14T22:58:58.642Z,-1.10
2023-02-14T23:01:26.007Z,-1.06
2023-02-14T23:03:57.827Z,-1.07
2023-02-14T23:06:26.946Z,-0.99
2023-02-14T23:08:54.545Z,-1.00
2023-02-14T23:11:24.643Z,-0.98
2023-02-14T23:14:13.013Z,-0.96
2023-02-14T23:16:58.815Z,-1.02
2023-02-14T23:19:46.734Z,-0.84
2023-02-14T23:22:17.128Z,-0.85
2023-02-14T23:24:45.656Z,-0.85
2023-02-14T23:27:12.273Z,-0.79
2023-02-14T23:29:38.816Z,-0.74
2023-02-14T23:32:06.624Z,-0.91
2023-02-14T23:34:35.562Z,-0.80
2023-02-14T23:37:02.394Z,-1.06
2023-02-14T23:39:29.149Z,-0.92
2023-02-14T23:41:56.109Z,-1.26
2023-02-14T23:44:28.082Z,-1.44
2023-02-14T23:46:58.864Z,-1.41
2023-02-14T23:49:26.618Z,-1.49
2023-02-14T23:51:55.826Z,-1.77
2023-02-14T23:54:24.008Z,-1.61
2023-02-14T23:56:52.494Z,-1.62
2023-02-14T23:59:21.037Z,-1.43
